createdAt,value
2023-01-06T00:01:23.786Z,70.56
2023-01-06T00:03:52.298Z,70.41
2023-01-06T00:06:20.520Z,71.55
2023-01-06T00:08:47.882Z,68.07
2023-01-06T00:11:15.611Z,68.18
2023-01-06T00:13:42.989Z,69.42
2023-01-06T00:16:12.853Z,70.55
2023-01-06T00:18:40.623Z,70.56
2023-01-06T00:21:08.176Z,70.21
2023-01-06T00:23:35.910Z,71.01
2023-01-06T00:26:04.470Z,70.48
2023-01-06T00:28:34.414Z,70.84
2023-01-06T00:31:07.097Z,70.54
2023-01-06T00:33:34.941Z,70.13
2023-01-06T00:36:02.420Z,69.83
2023-01-06T00:38:30.966Z,69.72
2023-01-06T00:40:58.594Z,71.39
2023-01-06T00:43:27.691Z,70.48
2023-01-06T00:45:55.108Z,72.50
2023-01-06T00:48:22.734Z,71.12
2023-01-06T00:50:50.116Z,72.04
2023-01-06T00:53:17.622Z,72.81
2023-01-06T00:55:45.255Z,72.54
2023-01-06T00:58:12.658Z,72.25
2023-01-06T01:00:40.065Z,71.51
2023-01-06T01:03:07.788Z,69.25
2023-01-06T01:05:35.180Z,71.27
2023-01-06T01:08:02.556Z,72.34
2023-01-06T01:10:30.179Z,72.42
2023-01-06T01:12:58.524Z,72.43
2023-01-06T01:15:25.961Z,70.23
2023-01-06T01:17:53.558Z,70.97
2023-01-06T01:20:20.929Z,68.81
2023-01-06T01:22:50.576Z,67.74
2023-01-06T01:25:18.160Z,67.87
2023-01-06T01:27:45.480Z,67.43
2023-01-06T01:30:12.851Z,66.97
2023-01-06T01:32:40.520Z,69.47
2023-01-06T01:35:08.060Z,67.67
2023-01-06T01:37:35.578Z,66.69
2023-01-06T01:40:03.683Z,68.98
2023-01-06T01:42:31.631Z,66.89
2023-01-06T01:45:02.738Z,65.72
2023-01-06T01:47:45.262Z,66.58
2023-01-06T01:50:17.455Z,68.24
2023-01-06T01:52:45.686Z,69.92
2023-01-06T01:55:13.133Z,68.72
2023-01-06T01:57:48.507Z,69.10
2023-01-06T02:00:16.784Z,70.68
2023-01-06T02:02:44.666Z,70.09
2023-01-06T02:05:13.998Z,70.84
2023-01-06T02:07:41.512Z,70.21
2023-01-06T02:10:15.799Z,68.85
2023-01-06T02:12:44.000Z,67.83
2023-01-06T02:15:25.222Z,68.32
2023-01-06T02:18:04.667Z,68.52
2023-01-06T02:20:56.988Z,67.53
2023-01-06T02:23:48.119Z,68.42
2023-01-06T02:26:24.335Z,68.34
2023-01-06T02:29:15.172Z,67.07
2023-01-06T02:31:42.431Z,67.89
2023-01-06T02:34:27.336Z,69.86
2023-01-06T02:37:05.387Z,68.08
2023-01-06T02:39:44.421Z,68.41
2023-01-06T02:42:24.320Z,67.08
2023-01-06T02:45:17.633Z,67.95
2023-01-06T02:48:10.267Z,66.26
2023-01-06T02:50:41.273Z,65.14
2023-01-06T02:53:21.243Z,65.44
2023-01-06T02:55:50.227Z,65.97
2023-01-06T02:58:35.584Z,67.24
2023-01-06T03:01:11.941Z,66.51
2023-01-06T03:03:41.086Z,67.05
2023-01-06T03:06:11.024Z,66.02
2023-01-06T03:08:38.381Z,65.98
2023-01-06T03:11:05.830Z,66.44
2023-01-06T03:13:56.253Z,66.17
2023-01-06T03:16:24.140Z,67.52
2023-01-06T03:18:51.823Z,66.72
2023-01-06T03:21:22.671Z,68.36
2023-01-06T03:23:50.106Z,69.03
2023-01-06T03:26:17.803Z,70.21
2023-01-06T03:28:45.270Z,68.19
2023-01-06T03:31:41.827Z,68.17
2023-01-06T03:34:17.897Z,69.14
2023-01-06T03:37:07.796Z,69.86
2023-01-06T03:40:05.665Z,71.29
2023-01-06T03:42:59.226Z,70.58
2023-01-06T03:45:36.095Z,69.32
2023-01-06T03:48:19.279Z,71.26
2023-01-06T03:51:16.984Z,71.15
2023-01-06T03:54:02.270Z,71.94
2023-01-06T03:56:34.068Z,70.36
2023-01-06T03:59:04.117Z,68.82
2023-01-06T04:01:32.055Z,70.41
2023-01-06T04:03:59.931Z,70.12
2023-01-06T04:06:27.646Z,67.61
2023-01-06T04:08:55.083Z,68.41
2023-01-06T04:11:42.211Z,70.81
2023-01-06T04:14:09.651Z,68.38
2023-01-06T04:16:38.239Z,71.86
2023-01-06T04:19:06.579Z,69.83
2023-01-06T04:21:33.961Z,68.47
2023-01-06T04:24:01.664Z,70.02
2023-01-06T04:26:29.037Z,70.83
2023-01-06T04:28:56.578Z,71.27
2023-01-06T04:31:24.307Z,71.40
2023-01-06T04:33:52.045Z,70.89
2023-01-06T04:36:20.402Z,70.37
2023-01-06T04:38:48.972Z,70.90
2023-01-06T04:41:16.294Z,67.90
2023-01-06T04:43:43.803Z,69.57
2023-01-06T04:46:11.576Z,72.49
2023-01-06T04:48:38.988Z,72.34
2023-01-06T04:51:07.786Z,72.98
2023-01-06T04:53:36.323Z,71.15
2023-01-06T04:56:08.470Z,70.39
2023-01-06T04:58:36.458Z,70.55
2023-01-06T05:01:05.357Z,70.87
2023-01-06T05:03:32.836Z,71.04
2023-01-06T05:06:04.432Z,70.93
2023-01-06T05:08:31.960Z,71.05
2023-01-06T05:11:04.315Z,70.91
2023-01-06T05:13:31.749Z,70.44
2023-01-06T05:15:59.264Z,72.13
2023-01-06T05:18:26.939Z,71.74
2023-01-06T05:20:54.698Z,69.66
2023-01-06T05:23:22.106Z,71.78
2023-01-06T05:25:53.085Z,72.18
2023-01-06T05:28:20.569Z,73.22
2023-01-06T05:30:47.935Z,75.11
2023-01-06T05:33:15.748Z,72.64
2023-01-06T05:35:43.080Z,72.90
2023-01-06T05:38:10.440Z,72.91
2023-01-06T05:40:38.047Z,70.54
2023-01-06T05:43:05.406Z,71.48
2023-01-06T05:45:32.791Z,72.73
2023-01-06T05:48:02.243Z,73.89
2023-01-06T05:50:29.598Z,70.96
2023-01-06T05:52:58.734Z,71.63
2023-01-06T05:55:26.919Z,72.83
2023-01-06T05:57:54.406Z,71.33
2023-01-06T06:00:21.938Z,74.07
2023-01-06T06:02:49.622Z,71.65
2023-01-06T06:05:16.975Z,71.72
2023-01-06T06:07:44.317Z,72.10
2023-01-06T06:10:11.934Z,72.05
2023-01-06T06:12:39.291Z,73.72
2023-01-06T06:15:07.157Z,74.21
2023-01-06T06:17:34.812Z,74.48
2023-01-06T06:20:03.285Z,75.05
2023-01-06T06:22:30.629Z,76.82
2023-01-06T06:24:58.315Z,75.53
2023-01-06T06:27:25.654Z,76.14
2023-01-06T06:29:53.022Z,75.89
2023-01-06T06:32:20.769Z,74.42
2023-01-06T06:34:48.090Z,74.44
2023-01-06T06:37:15.525Z,75.47
2023-01-06T06:39:43.115Z,73.26
2023-01-06T06:42:10.464Z,71.17
2023-01-06T06:44:37.794Z,70.06
2023-01-06T06:47:05.539Z,69.09
2023-01-06T06:49:32.915Z,69.11
2023-01-06T06:52:00.273Z,72.01
2023-01-06T06:54:27.873Z,71.26
2023-01-06T06:56:56.972Z,69.53
2023-01-06T06:59:24.353Z,69.72
2023-01-06T07:01:52.345Z,69.24
2023-01-06T07:04:19.782Z,68.31
2023-01-06T07:06:47.184Z,71.72
2023-01-06T07:09:14.900Z,71.65
2023-01-06T07:11:42.241Z,70.52
2023-01-06T07:14:09.594Z,71.88
2023-01-06T07:16:37.250Z,73.03
2023-01-06T07:19:04.564Z,70.16
2023-01-06T07:21:31.982Z,70.95
2023-01-06T07:23:59.730Z,72.89
2023-01-06T07:26:27.067Z,73.49
2023-01-06T07:28:54.410Z,72.87
2023-01-06T07:31:22.137Z,72.19
2023-01-06T07:33:49.551Z,69.98
2023-01-06T07:36:16.881Z,69.56
2023-01-06T07:38:44.480Z,68.16
2023-01-06T07:41:11.831Z,70.17
2023-01-06T07:43:39.202Z,72.62
2023-01-06T07:46:06.952Z,74.50
2023-01-06T07:48:34.536Z,70.35
2023-01-06T07:51:03.289Z,71.36
2023-01-06T07:53:31.368Z,72.85
2023-01-06T07:55:58.737Z,74.81
2023-01-06T07:58:26.085Z,72.21
2023-01-06T08:00:53.730Z,72.01
2023-01-06T08:03:21.526Z,71.54
2023-01-06T08:05:48.960Z,74.38
2023-01-06T08:08:16.350Z,73.66
2023-01-06T08:10:43.932Z,75.12
2023-01-06T08:13:11.616Z,75.25
2023-01-06T08:15:39.350Z,76.56
2023-01-06T08:18:07.256Z,74.83
2023-01-06T08:20:34.714Z,75.96
2023-01-06T08:23:02.382Z,75.39
2023-01-06T08:25:30.052Z,73.68
2023-01-06T08:27:58.741Z,71.46
2023-01-06T08:30:26.233Z,70.27
2023-01-06T08:32:57.104Z,73.12
2023-01-06T08:35:24.573Z,72.54
2023-01-06T08:37:52.013Z,72.38
2023-01-06T08:40:19.641Z,72.87
2023-01-06T08:42:47.107Z,70.87
2023-01-06T08:45:14.511Z,69.93
2023-01-06T08:47:42.172Z,69.81
2023-01-06T08:50:09.700Z,67.74
2023-01-06T08:52:37.053Z,65.85
2023-01-06T08:55:04.878Z,68.16
2023-01-06T08:57:32.247Z,67.28
2023-01-06T08:59:59.598Z,67.44
2023-01-06T09:02:29.483Z,66.43
2023-01-06T09:04:57.426Z,66.74
2023-01-06T09:07:24.819Z,65.96
2023-01-06T09:09:52.440Z,65.11
2023-01-06T09:12:19.851Z,66.40
2023-01-06T09:14:47.176Z,66.08
2023-01-06T09:17:14.788Z,67.12
2023-01-06T09:19:42.196Z,68.20
2023-01-06T09:22:09.524Z,68.53
2023-01-06T09:24:37.228Z,66.89
2023-01-06T09:27:04.581Z,67.49
2023-01-06T09:29:31.937Z,69.19
2023-01-06T09:31:59.551Z,69.56
2023-01-06T09:34:26.933Z,68.50
2023-01-06T09:36:54.333Z,68.49
2023-01-06T09:39:21.971Z,67.81
2023-01-06T09:41:58.437Z,67.69
2023-01-06T09:44:30.194Z,68.89
2023-01-06T09:46:58.452Z,68.76
2023-01-06T09:49:35.862Z,69.54
2023-01-06T09:52:27.791Z,68.44
2023-01-06T09:55:02.111Z,69.42
2023-01-06T09:57:33.972Z,70.71
2023-01-06T10:00:05.309Z,70.72
2023-01-06T10:02:39.987Z,69.86
2023-01-06T10:05:26.414Z,68.82
2023-01-06T10:08:03.684Z,68.85
2023-01-06T10:10:56.329Z,69.51
2023-01-06T10:13:38.974Z,67.25
2023-01-06T10:16:30.938Z,67.33
2023-01-06T10:19:13.616Z,68.10
2023-01-06T10:22:07.671Z,66.52
2023-01-06T10:24:51.862Z,68.30
2023-01-06T10:27:23.985Z,68.64
2023-01-06T10:29:51.529Z,68.89
2023-01-06T10:32:19.179Z,68.23
2023-01-06T10:34:46.844Z,67.11
2023-01-06T10:37:17.073Z,67.45
2023-01-06T10:39:44.944Z,65.70
2023-01-06T10:42:37.493Z,67.21
2023-01-06T10:45:05.747Z,68.39
2023-01-06T10:47:33.232Z,66.37
2023-01-06T10:50:00.692Z,66.58
2023-01-06T10:52:28.320Z,64.38
2023-01-06T10:54:58.697Z,65.64
2023-01-06T10:57:29.765Z,65.89
2023-01-06T11:00:12.722Z,65.90
2023-01-06T11:02:44.517Z,66.84
2023-01-06T11:05:17.028Z,65.58
2023-01-06T11:07:48.722Z,67.41
2023-01-06T11:10:52.110Z,65.76
2023-01-06T11:13:34.605Z,63.95
2023-01-06T11:16:03.841Z,64.01
2023-01-06T11:18:35.150Z,62.94
2023-01-06T11:21:16.449Z,63.91
2023-01-06T11:23:45.210Z,61.66
2023-01-06T11:26:12.666Z,64.04
2023-01-06T11:28:40.499Z,64.01
2023-01-06T11:31:13.773Z,63.79
2023-01-06T11:34:00.626Z,63.59
2023-01-06T11:36:30.938Z,61.84
2023-01-06T11:39:03.224Z,62.79
2023-01-06T11:41:37.607Z,63.72
2023-01-06T11:44:18.281Z,64.32
2023-01-06T11:46:52.746Z,64.20
2023-01-06T11:49:29.089Z,63.03
2023-01-06T11:52:02.621Z,61.70
2023-01-06T11:54:36.690Z,60.31
2023-01-06T11:57:16.160Z,59.92
2023-01-06T11:59:59.045Z,61.35
2023-01-06T12:02:48.708Z,62.34
2023-01-06T12:05:25.343Z,59.93
2023-01-06T12:07:52.793Z,60.07
2023-01-06T12:10:26.499Z,59.63
2023-01-06T12:12:53.922Z,61.04
2023-01-06T12:15:22.448Z,60.31
2023-01-06T12:17:52.839Z,59.64
2023-01-06T12:20:26.181Z,59.98
2023-01-06T12:23:14.320Z,61.17
2023-01-06T12:25:43.188Z,60.57
2023-01-06T12:28:29.899Z,58.70
2023-01-06T12:30:59.065Z,61.22
2023-01-06T12:33:30.508Z,60.05
2023-01-06T12:36:02.440Z,61.60
2023-01-06T12:38:54.169Z,61.87
2023-01-06T12:41:27.412Z,60.83
2023-01-06T12:44:29.739Z,59.74
2023-01-06T12:47:05.434Z,61.38
2023-01-06T12:49:58.595Z,61.15
2023-01-06T12:52:36.647Z,59.48
2023-01-06T12:55:05.727Z,60.72
2023-01-06T12:57:49.704Z,60.45
2023-01-06T13:00:32.538Z,58.83
2023-01-06T13:03:08.772Z,59.68
2023-01-06T13:05:57.411Z,60.05
2023-01-06T13:08:39.777Z,60.39
2023-01-06T13:11:26.289Z,58.98
2023-01-06T13:14:13.132Z,59.96
2023-01-06T13:17:04.339Z,59.06
2023-01-06T13:19:42.527Z,59.46
2023-01-06T13:22:12.147Z,58.03
2023-01-06T13:24:53.384Z,58.29
2023-01-06T13:27:56.371Z,58.13
2023-01-06T13:30:39.619Z,58.46
2023-01-06T13:33:25.928Z,58.08
2023-01-06T13:36:14.991Z,58.70
2023-01-06T13:39:04.297Z,56.30
2023-01-06T13:41:34.203Z,56.90
2023-01-06T13:44:01.899Z,56.12
2023-01-06T13:46:29.327Z,58.47
2023-01-06T13:49:02.489Z,58.45
2023-01-06T13:51:33.414Z,59.43
2023-01-06T13:54:02.857Z,58.22
2023-01-06T13:56:32.079Z,57.63
2023-01-06T13:59:22.446Z,55.93
2023-01-06T14:01:50.326Z,55.99
2023-01-06T14:04:29.932Z,55.66
2023-01-06T14:06:57.573Z,56.04
2023-01-06T14:09:25.210Z,58.24
2023-01-06T14:11:52.644Z,56.92
2023-01-06T14:14:28.451Z,55.74
2023-01-06T14:16:56.988Z,55.92
2023-01-06T14:19:25.458Z,55.36
2023-01-06T14:21:53.978Z,55.63
2023-01-06T14:24:25.773Z,55.96
2023-01-06T14:27:01.246Z,56.53
2023-01-06T14:29:43.787Z,56.78
2023-01-06T14:32:14.070Z,56.96
2023-01-06T14:34:43.506Z,57.33
2023-01-06T14:37:14.419Z,57.68
2023-01-06T14:39:42.760Z,57.94
2023-01-06T14:42:16.047Z,58.40
2023-01-06T14:44:46.603Z,58.94
2023-01-06T14:47:18.350Z,59.09
2023-01-06T14:49:56.378Z,59.69
2023-01-06T14:52:31.450Z,60.08
2023-01-06T14:54:59.087Z,60.80
2023-01-06T14:57:29.312Z,60.84
2023-01-06T15:00:16.247Z,60.95
2023-01-06T15:02:48.135Z,61.20
2023-01-06T15:05:22.993Z,61.09
2023-01-06T15:08:02.328Z,61.41
2023-01-06T15:10:32.969Z,61.81
2023-01-06T15:13:01.067Z,62.12
2023-01-06T15:15:30.647Z,62.31
2023-01-06T15:17:58.587Z,62.78
2023-01-06T15:20:34.436Z,62.87
2023-01-06T15:23:01.920Z,62.99
2023-01-06T15:25:29.666Z,63.05
2023-01-06T15:27:57.561Z,63.46
2023-01-06T15:30:26.680Z,63.80
2023-01-06T15:32:54.571Z,63.75
2023-01-06T15:35:26.586Z,63.74
2023-01-06T15:38:00.155Z,63.87
2023-01-06T15:40:27.692Z,63.95
2023-01-06T15:42:55.347Z,63.98
2023-01-06T15:45:31.931Z,63.98
2023-01-06T15:48:01.714Z,64.19
2023-01-06T15:50:29.822Z,64.17
2023-01-06T15:53:04.056Z,64.50
2023-01-06T15:55:32.752Z,64.92
2023-01-06T15:58:08.372Z,64.85
2023-01-06T16:00:48.164Z,64.75
2023-01-06T16:03:20.552Z,64.62
2023-01-06T16:05:51.001Z,65.10
2023-01-06T16:08:25.532Z,65.06
2023-01-06T16:11:11.299Z,65.43
2023-01-06T16:13:39.907Z,65.64
2023-01-06T16:16:09.829Z,65.59
2023-01-06T16:18:37.451Z,65.82
2023-01-06T16:21:15.711Z,65.79
2023-01-06T16:23:46.555Z,65.89
2023-01-06T16:26:23.876Z,65.89
2023-01-06T16:28:56.571Z,66.17
2023-01-06T16:31:32.171Z,66.37
2023-01-06T16:34:15.758Z,66.22
2023-01-06T16:36:43.393Z,66.45
2023-01-06T16:39:10.760Z,66.55
2023-01-06T16:41:38.107Z,66.48
2023-01-06T16:44:05.801Z,66.52
2023-01-06T16:46:33.221Z,66.53
2023-01-06T16:49:01.759Z,66.52
2023-01-06T16:51:29.439Z,66.61
2023-01-06T16:53:56.795Z,66.94
2023-01-06T16:56:24.216Z,67.06
2023-01-06T16:58:52.992Z,67.43
2023-01-06T17:01:21.830Z,66.91
2023-01-06T17:03:55.417Z,67.03
2023-01-06T17:06:24.840Z,67.03
2023-01-06T17:08:56.994Z,68.15
2023-01-06T17:11:25.455Z,67.91
2023-01-06T17:14:03.678Z,67.21
2023-01-06T17:16:31.886Z,66.72
2023-01-06T17:19:01.011Z,66.46
2023-01-06T17:21:36.379Z,66.54
2023-01-06T17:24:06.764Z,66.55
2023-01-06T17:26:34.150Z,66.52
2023-01-06T17:29:01.746Z,66.58
2023-01-06T17:31:34.566Z,66.56
2023-01-06T17:34:16.009Z,66.51
2023-01-06T17:36:45.847Z,66.42
2023-01-06T17:39:21.509Z,66.60
2023-01-06T17:41:49.433Z,66.44
2023-01-06T17:44:18.596Z,66.18
2023-01-06T17:46:46.214Z,66.00
2023-01-06T17:49:19.867Z,65.81
2023-01-06T17:51:47.241Z,66.24
2023-01-06T17:54:42.515Z,66.14
2023-01-06T17:57:18.770Z,65.86
2023-01-06T17:59:46.572Z,66.04
2023-01-06T18:02:46.367Z,66.08
2023-01-06T18:05:26.116Z,65.96
2023-01-06T18:08:05.324Z,66.32
2023-01-06T18:10:44.062Z,66.57
2023-01-06T18:13:13.964Z,66.64
2023-01-06T18:15:41.604Z,68.13
2023-01-06T18:18:24.786Z,66.76
2023-01-06T18:21:00.635Z,66.68
2023-01-06T18:23:28.087Z,66.44
2023-01-06T18:25:56.683Z,66.53
2023-01-06T18:28:24.088Z,66.59
2023-01-06T18:30:56.503Z,66.27
2023-01-06T18:33:24.127Z,67.16
2023-01-06T18:35:57.218Z,66.64
2023-01-06T18:38:26.335Z,67.03
2023-01-06T18:40:54.331Z,66.24
2023-01-06T18:43:30.715Z,66.13
2023-01-06T18:46:00.488Z,66.60
2023-01-06T18:48:27.719Z,66.98
2023-01-06T18:50:56.133Z,69.49
2023-01-06T18:53:43.328Z,69.74
2023-01-06T18:56:16.152Z,68.40
2023-01-06T18:58:49.676Z,66.94
2023-01-06T19:01:42.442Z,66.98
2023-01-06T19:04:24.878Z,66.17
2023-01-06T19:06:54.288Z,67.12
2023-01-06T19:09:23.526Z,66.78
2023-01-06T19:12:15.335Z,66.87
2023-01-06T19:14:44.069Z,67.01
2023-01-06T19:17:31.343Z,66.61
2023-01-06T19:20:00.706Z,66.71
2023-01-06T19:22:29.370Z,65.75
2023-01-06T19:25:15.625Z,66.00
2023-01-06T19:27:57.215Z,66.15
2023-01-06T19:30:43.909Z,66.37
2023-01-06T19:33:23.673Z,66.24
2023-01-06T19:36:00.186Z,66.37
2023-01-06T19:38:29.834Z,66.18
2023-01-06T19:40:58.361Z,66.40
2023-01-06T19:43:32.853Z,65.93
2023-01-06T19:46:22.785Z,66.24
2023-01-06T19:48:50.248Z,66.01
2023-01-06T19:51:23.187Z,66.03
2023-01-06T19:53:54.822Z,66.40
2023-01-06T19:56:28.491Z,66.77
2023-01-06T19:59:03.824Z,66.52
2023-01-06T20:01:32.047Z,66.75
2023-01-06T20:03:59.931Z,65.73
2023-01-06T20:06:27.328Z,65.99
2023-01-06T20:08:54.695Z,66.03
2023-01-06T20:11:23.335Z,66.24
2023-01-06T20:13:50.891Z,66.62
2023-01-06T20:16:18.342Z,67.01
2023-01-06T20:18:46.126Z,66.21
2023-01-06T20:21:13.502Z,66.48
2023-01-06T20:23:40.997Z,65.92
2023-01-06T20:26:08.624Z,66.95
2023-01-06T20:28:36.028Z,66.80
2023-01-06T20:31:03.396Z,66.20
2023-01-06T20:33:30.987Z,65.96
2023-01-06T20:35:58.455Z,66.02
2023-01-06T20:38:25.839Z,66.20
2023-01-06T20:40:53.469Z,66.07
2023-01-06T20:43:20.851Z,66.01
2023-01-06T20:45:48.313Z,66.14
2023-01-06T20:48:16.088Z,66.84
2023-01-06T20:50:43.664Z,66.63
2023-01-06T20:53:11.064Z,66.87
2023-01-06T20:55:38.678Z,66.18
2023-01-06T20:58:06.099Z,66.46
2023-01-06T21:00:33.644Z,66.70
2023-01-06T21:03:01.371Z,66.19
2023-01-06T21:05:28.764Z,66.05
2023-01-06T21:07:56.181Z,66.03
2023-01-06T21:10:23.964Z,66.94
2023-01-06T21:12:51.471Z,66.40
2023-01-06T21:15:19.152Z,66.57
2023-01-06T21:17:46.778Z,66.73
2023-01-06T21:20:14.126Z,67.05
2023-01-06T21:22:41.492Z,66.53
2023-01-06T21:25:09.491Z,66.59
2023-01-06T21:27:36.867Z,66.54
2023-01-06T21:30:04.571Z,66.35
2023-01-06T21:32:32.225Z,66.83
2023-01-06T21:34:59.620Z,66.63
2023-01-06T21:37:27.012Z,66.66
2023-01-06T21:39:54.745Z,66.26
2023-01-06T21:42:40.830Z,66.47
2023-01-06T21:45:08.580Z,68.22
2023-01-06T21:47:35.832Z,73.56
2023-01-06T21:50:03.404Z,70.79
2023-01-06T21:52:31.974Z,71.42
2023-01-06T21:54:59.286Z,71.30
2023-01-06T21:57:26.646Z,69.57
2023-01-06T21:59:54.282Z,70.05
2023-01-06T22:02:21.843Z,69.30
2023-01-06T22:04:51.636Z,69.34
2023-01-06T22:07:21.106Z,68.37
2023-01-06T22:09:48.539Z,67.31
2023-01-06T22:12:16.202Z,67.55
2023-01-06T22:14:43.829Z,67.75
2023-01-06T22:17:11.513Z,67.38
2023-01-06T22:19:39.275Z,67.75
2023-01-06T22:22:06.653Z,67.32
2023-01-06T22:24:34.071Z,66.66
2023-01-06T22:27:01.819Z,67.23
2023-01-06T22:29:29.200Z,67.88
2023-01-06T22:32:06.046Z,67.28
2023-01-06T22:34:33.817Z,67.49
2023-01-06T22:37:01.178Z,67.61
2023-01-06T22:39:28.560Z,67.26
2023-01-06T22:41:56.255Z,67.27
2023-01-06T22:44:23.629Z,67.11
2023-01-06T22:46:50.989Z,67.21
2023-01-06T22:49:18.668Z,67.19
2023-01-06T22:51:46.030Z,66.77
2023-01-06T22:54:13.458Z,67.09
2023-01-06T22:56:41.923Z,66.90
2023-01-06T22:59:09.661Z,67.12
2023-01-06T23:01:37.066Z,67.09
2023-01-06T23:04:04.798Z,67.19
2023-01-06T23:06:32.242Z,67.29
2023-01-06T23:09:01.065Z,67.37
2023-01-06T23:11:29.847Z,67.31
2023-01-06T23:13:57.536Z,67.37
2023-01-06T23:16:26.528Z,67.61
2023-01-06T23:18:54.622Z,67.75
2023-01-06T23:21:23.356Z,67.78
2023-01-06T23:23:50.967Z,68.13
2023-01-06T23:26:23.327Z,68.23
2023-01-06T23:28:51.404Z,68.26
2023-01-06T23:31:22.444Z,68.27
2023-01-06T23:33:52.375Z,68.26
2023-01-06T23:36:20.121Z,68.31
2023-01-06T23:38:47.599Z,68.93
2023-01-06T23:41:19.096Z,70.09
2023-01-06T23:43:46.980Z,69.03
2023-01-06T23:46:19.047Z,69.52
2023-01-06T23:48:46.871Z,69.12
2023-01-06T23:51:14.471Z,69.21
2023-01-06T23:53:42.031Z,68.94
2023-01-06T23:56:14.178Z,68.66
2023-01-06T23:58:43.096Z,68.39
